Time;durP1;ratioP1;P1;durP2;ratioP2;P2;SDS_P1;SDS_P2;PMS_P1;PMS_P2;Temp;Humidity;BMP_temperature;BMP_pressure;BME280_temperature;BME280_humidity;BME280_pressure;Samples;Min_cycle;Max_cycle;Signal;HPM_P1;HPM_P2
2024/03/01 00:01:47;;;;;;;10.02;6.25;;;9.00;99.90;;;;;;5121098;27;20175;-66
2024/03/01 00:04:13;;;;;;;7.72;6.03;;;9.00;99.90;;;;;;5118720;27;20128;-67
2024/03/01 00:06:39;;;;;;;10.52;6.63;;;9.00;99.90;;;;;;5120143;27;20402;-67
2024/03/01 00:09:05;;;;;;;11.40;6.50;;;9.00;99.90;;;;;;5121879;27;20486;-67
2024/03/01 00:11:31;;;;;;;9.93;6.32;;;9.00;99.90;;;;;;5121008;27;20595;-67
2024/03/01 00:13:57;;;;;;;9.93;6.20;;;8.90;99.90;;;;;;5107162;27;20051;-66
2024/03/01 00:16:23;;;;;;;9.75;6.45;;;9.00;99.90;;;;;;5119193;27;20063;-67
2024/03/01 00:18:49;;;;;;;8.00;5.93;;;9.00;99.90;;;;;;5118731;27;20158;-67
2024/03/01 00:21:17;;;;;;;8.73;6.78;;;9.00;99.90;;;;;;5121965;27;20047;-68
2024/03/01 00:23:44;;;;;;;9.15;6.18;;;9.20;99.90;;;;;;5114620;28;20103;-67
2024/03/01 00:26:10;;;;;;;8.43;6.13;;;9.00;99.90;;;;;;5120888;28;20501;-67
2024/03/01 00:28:36;;;;;;;10.05;6.88;;;9.10;99.90;;;;;;5120626;27;20091;-67
2024/03/01 00:31:02;;;;;;;10.98;6.60;;;9.10;99.90;;;;;;5121675;27;20039;-67
2024/03/01 00:33:28;;;;;;;7.47;5.55;;;9.10;99.90;;;;;;5124490;27;20043;-67
2024/03/01 00:35:54;;;;;;;10.50;5.60;;;9.10;99.90;;;;;;5125984;27;20051;-68
2024/03/01 00:38:21;;;;;;;7.45;5.40;;;9.10;99.90;;;;;;5113595;27;20100;-67
2024/03/01 00:40:47;;;;;;;10.40;6.03;;;9.10;99.90;;;;;;5117386;27;20524;-66
2024/03/01 00:43:12;;;;;;;9.40;5.88;;;9.20;99.90;;;;;;5129049;27;20039;-67
2024/03/01 00:45:39;;;;;;;7.50;5.68;;;9.20;99.90;;;;;;5121477;27;20039;-67
2024/03/01 00:48:12;;;;;;;8.35;5.93;;;9.20;99.90;;;;;;5122389;27;20208;-66
2024/03/01 00:50:39;;;;;;;8.48;5.88;;;9.20;99.90;;;;;;5117415;27;20043;-68
2024/03/01 00:53:05;;;;;;;10.48;6.68;;;9.20;99.90;;;;;;5104850;28;20075;-67
2024/03/01 00:55:33;;;;;;;10.77;6.68;;;9.20;99.90;;;;;;5114903;27;20197;-67
2024/03/01 00:58:00;;;;;;;11.02;6.15;;;9.20;99.90;;;;;;5108123;28;20505;-67
2024/03/01 01:00:26;;;;;;;7.80;5.82;;;9.30;99.90;;;;;;5110856;27;20091;-66
2024/03/01 01:02:53;;;;;;;9.43;5.78;;;9.30;99.90;;;;;;5105990;28;20044;-67
2024/03/01 01:05:19;;;;;;;9.13;6.35;;;9.30;99.90;;;;;;5120242;27;20106;-67
2024/03/01 01:07:44;;;;;;;9.10;5.85;;;9.30;99.90;;;;;;5120693;27;20469;-67
2024/03/01 01:10:10;;;;;;;9.75;6.45;;;9.30;99.90;;;;;;5122442;27;20085;-67
2024/03/01 01:12:37;;;;;;;10.57;6.78;;;9.20;99.90;;;;;;5115683;27;20047;-67
2024/03/01 01:15:04;;;;;;;8.88;6.05;;;9.30;99.90;;;;;;5117219;27;20054;-67
2024/03/01 01:17:30;;;;;;;8.52;6.25;;;9.30;99.90;;;;;;5120346;27;20851;-67
2024/03/01 01:19:57;;;;;;;12.05;6.28;;;9.30;99.90;;;;;;5125568;27;20043;-67
2024/03/01 01:22:24;;;;;;;9.60;6.70;;;9.30;99.90;;;;;;5130634;27;20050;-66
2024/03/01 01:24:50;;;;;;;9.45;6.63;;;9.30;99.90;;;;;;5121280;27;20031;-68
2024/03/01 01:27:16;;;;;;;11.73;6.00;;;9.20;99.90;;;;;;5121095;27;20070;-68
2024/03/01 01:29:42;;;;;;;10.32;6.18;;;9.20;99.90;;;;;;5117207;27;20039;-67
2024/03/01 01:32:08;;;;;;;8.15;6.13;;;9.30;99.90;;;;;;5118001;27;20596;-67
2024/03/01 01:34:34;;;;;;;8.80;6.35;;;9.30;99.90;;;;;;5131300;27;20231;-68
2024/03/01 01:37:00;;;;;;;8.43;6.22;;;9.30;99.90;;;;;;5129212;27;20278;-68
2024/03/01 01:39:26;;;;;;;8.70;6.47;;;9.20;99.90;;;;;;5125691;27;20092;-68
2024/03/01 01:41:52;;;;;;;7.85;6.05;;;9.30;99.90;;;;;;5108129;27;20235;-67
2024/03/01 01:44:17;;;;;;;10.98;6.15;;;9.30;99.90;;;;;;5121098;27;20071;-68
2024/03/01 01:46:48;;;;;;;11.88;6.53;;;9.20;99.90;;;;;;5123568;27;20497;-67
2024/03/01 01:49:16;;;;;;;8.68;5.85;;;9.20;99.90;;;;;;5124774;27;20145;-67
2024/03/01 01:51:42;;;;;;;8.38;6.05;;;9.20;99.90;;;;;;5123167;27;20203;-67
2024/03/01 01:54:09;;;;;;;10.32;6.50;;;9.30;99.90;;;;;;5125486;27;20751;-67
2024/03/01 01:56:36;;;;;;;6.95;5.45;;;9.30;99.90;;;;;;5120055;27;20047;-67
2024/03/01 01:59:03;;;;;;;9.88;5.90;;;9.30;99.90;;;;;;5112391;27;20051;-67
2024/03/01 02:01:29;;;;;;;11.75;6.47;;;9.30;99.90;;;;;;5122231;27;20042;-67
2024/03/01 02:03:55;;;;;;;8.13;6.22;;;9.30;99.90;;;;;;5119589;27;20533;-67
2024/03/01 02:06:21;;;;;;;8.70;6.22;;;9.30;99.90;;;;;;5120962;27;20035;-67
2024/03/01 02:08:48;;;;;;;7.80;5.90;;;9.20;99.90;;;;;;5115603;27;20023;-67
2024/03/01 02:11:14;;;;;;;8.85;6.13;;;9.30;99.90;;;;;;5121586;27;20036;-67
2024/03/01 02:13:40;;;;;;;8.00;5.65;;;9.30;99.90;;;;;;5113080;27;20035;-66
2024/03/01 02:16:06;;;;;;;9.45;5.88;;;9.30;99.90;;;;;;5116765;27;20098;-68
2024/03/01 02:18:33;;;;;;;8.75;6.25;;;9.30;99.90;;;;;;5126460;27;20042;-67
2024/03/01 02:21:14;;;;;;;9.10;5.70;;;9.30;99.90;;;;;;5126085;27;20497;-66
2024/03/01 02:23:39;;;;;;;8.95;5.78;;;9.30;99.90;;;;;;5103143;27;20039;-67
2024/03/01 02:26:06;;;;;;;8.05;5.82;;;9.30;99.90;;;;;;5119223;27;20450;-68
2024/03/01 02:28:32;;;;;;;9.45;6.30;;;9.30;99.90;;;;;;5120169;27;20031;-67
2024/03/01 02:30:58;;;;;;;9.32;6.20;;;9.30;99.90;;;;;;5122064;27;20096;-66
2024/03/01 02:33:24;;;;;;;9.02;5.90;;;9.30;99.90;;;;;;5120726;27;20410;-67
2024/03/01 02:35:51;;;;;;;7.05;5.70;;;9.30;99.90;;;;;;5126820;27;20043;-67
2024/03/01 02:38:16;;;;;;;9.98;6.57;;;9.30;99.90;;;;;;5116919;27;20425;-66
2024/03/01 02:40:43;;;;;;;9.43;6.72;;;9.30;99.90;;;;;;5111874;27;20122;-67
2024/03/01 02:43:09;;;;;;;8.85;6.18;;;9.30;99.90;;;;;;5117351;27;20468;-67
2024/03/01 02:45:36;;;;;;;7.82;5.68;;;9.30;99.90;;;;;;5107956;27;20051;-67
2024/03/01 02:48:03;;;;;;;10.68;6.60;;;9.30;99.90;;;;;;5120709;27;20051;-67
2024/03/01 02:50:28;;;;;;;7.43;5.85;;;9.30;99.90;;;;;;5123542;27;20039;-67
2024/03/01 02:52:54;;;;;;;8.60;6.57;;;9.30;99.90;;;;;;5106154;27;20108;-66
2024/03/01 02:55:20;;;;;;;8.57;6.53;;;9.30;99.90;;;;;;5117865;27;20465;-65
2024/03/01 02:57:53;;;;;;;12.60;6.10;;;9.30;99.90;;;;;;5124014;27;20537;-67
2024/03/01 03:00:20;;;;;;;8.57;5.90;;;9.30;99.90;;;;;;5122071;27;20141;-67
2024/03/01 03:02:46;;;;;;;8.48;6.28;;;9.30;99.90;;;;;;5109435;27;20039;-67
2024/03/01 03:05:12;;;;;;;7.70;6.25;;;9.30;99.90;;;;;;5120264;27;20066;-67
2024/03/01 03:07:39;;;;;;;7.10;5.40;;;9.30;99.90;;;;;;5120745;27;20066;-66
2024/03/01 03:10:05;;;;;;;9.27;6.45;;;9.20;99.90;;;;;;5114422;27;20616;-66
2024/03/01 03:12:31;;;;;;;8.55;6.57;;;9.20;99.90;;;;;;5120005;27;20107;-66
2024/03/01 03:14:57;;;;;;;10.13;6.97;;;9.20;99.90;;;;;;5117751;27;20047;-67
2024/03/01 03:17:23;;;;;;;9.85;6.35;;;9.10;99.90;;;;;;5113027;27;20098;-66
2024/03/01 03:19:49;;;;;;;9.00;6.28;;;9.10;99.90;;;;;;5119667;27;20106;-67
2024/03/01 03:22:15;;;;;;;11.05;6.30;;;9.00;99.90;;;;;;5106182;27;20039;-65
2024/03/01 03:24:41;;;;;;;10.30;6.03;;;9.00;99.90;;;;;;5118980;27;20049;-66
2024/03/01 03:27:07;;;;;;;9.90;6.75;;;9.00;99.90;;;;;;5115671;27;20505;-66
2024/03/01 03:29:34;;;;;;;12.00;6.82;;;9.00;99.90;;;;;;5111739;27;20126;-66
2024/03/01 03:32:00;;;;;;;7.78;5.55;;;8.90;99.90;;;;;;5120405;27;20046;-66
2024/03/01 03:34:26;;;;;;;7.65;6.45;;;9.00;99.90;;;;;;5119410;27;20520;-66
2024/03/01 03:36:52;;;;;;;9.23;6.38;;;9.00;99.90;;;;;;5115541;27;20075;-66
2024/03/01 03:39:18;;;;;;;9.07;6.22;;;8.90;99.90;;;;;;5118767;27;20044;-67
2024/03/01 03:41:43;;;;;;;10.93;6.55;;;8.90;99.90;;;;;;5118310;27;20043;-66
2024/03/01 03:44:10;;;;;;;9.90;6.93;;;9.00;99.90;;;;;;5114888;27;20102;-66
2024/03/01 03:46:35;;;;;;;12.57;7.28;;;9.00;99.90;;;;;;5116219;27;20035;-66
2024/03/01 03:49:07;;;;;;;11.73;7.03;;;9.00;99.90;;;;;;5119118;27;20031;-66
2024/03/01 03:51:33;;;;;;;8.60;6.63;;;8.90;99.90;;;;;;5116215;27;20115;-66
2024/03/01 03:54:04;;;;;;;9.23;6.78;;;8.80;99.90;;;;;;5117575;27;20050;-66
2024/03/01 03:56:30;;;;;;;11.70;7.03;;;8.80;99.90;;;;;;5110883;27;20039;-66
2024/03/01 03:58:56;;;;;;;12.50;8.02;;;8.80;99.90;;;;;;5116801;27;20494;-66
2024/03/01 04:01:22;;;;;;;10.75;7.65;;;8.70;99.90;;;;;;5119781;27;20338;-66
2024/03/01 04:03:48;;;;;;;12.07;7.70;;;8.80;99.90;;;;;;5109625;27;20050;-66
2024/03/01 04:06:15;;;;;;;13.40;7.72;;;8.70;99.90;;;;;;5117425;27;20161;-66
2024/03/01 04:08:41;;;;;;;13.20;7.70;;;8.70;99.90;;;;;;5117867;27;20039;-66
2024/03/01 04:11:07;;;;;;;9.27;6.82;;;8.70;99.90;;;;;;5117452;27;20147;-67
2024/03/01 04:13:37;;;;;;;12.25;8.25;;;8.70;99.90;;;;;;5119363;27;20520;-67
2024/03/01 04:16:06;;;;;;;12.45;8.73;;;8.70;99.90;;;;;;5118974;27;20075;-66
2024/03/01 04:18:37;;;;;;;14.70;8.65;;;8.70;99.90;;;;;;5113953;27;20040;-66
2024/03/01 04:21:07;;;;;;;11.52;8.48;;;8.80;99.90;;;;;;5109592;27;20088;-66
2024/03/01 04:23:33;;;;;;;11.02;8.45;;;8.80;99.90;;;;;;5119410;27;20051;-66
2024/03/01 04:25:58;;;;;;;11.90;8.48;;;8.80;99.90;;;;;;5121156;28;20031;-66
2024/03/01 04:28:28;;;;;;;11.20;8.02;;;8.80;99.90;;;;;;5122841;27;20100;-66
2024/03/01 04:30:54;;;;;;;13.80;8.55;;;8.80;99.90;;;;;;5115010;28;20046;-66
2024/03/01 04:33:20;;;;;;;13.05;9.20;;;8.80;99.90;;;;;;5120166;27;20039;-66
2024/03/01 04:35:46;;;;;;;13.10;9.27;;;8.90;99.90;;;;;;5128051;27;20409;-65
2024/03/01 04:38:12;;;;;;;13.57;10.05;;;8.90;99.90;;;;;;5112737;27;20046;-66
2024/03/01 04:40:40;;;;;;;12.70;9.00;;;8.90;99.90;;;;;;5119362;28;20147;-66
2024/03/01 04:43:06;;;;;;;13.20;9.20;;;8.90;99.90;;;;;;5119204;27;20490;-66
2024/03/01 04:45:35;;;;;;;15.63;10.38;;;8.90;99.90;;;;;;5121825;27;20031;-66
2024/03/01 04:48:01;;;;;;;;;;;8.90;99.90;;;;;;5117447;27;20039;-66
2024/03/01 04:50:27;;;;;;;14.57;9.05;;;8.90;99.90;;;;;;5122964;27;20320;-66
2024/03/01 04:52:53;;;;;;;12.77;9.20;;;8.80;99.90;;;;;;5118308;27;20087;-66
2024/03/01 04:55:19;;;;;;;14.40;10.15;;;8.90;99.90;;;;;;5121474;27;20039;-66
2024/03/01 04:57:45;;;;;;;14.45;9.98;;;8.80;99.90;;;;;;5122409;27;20050;-66
2024/03/01 05:00:15;;;;;;;13.10;9.60;;;8.80;99.90;;;;;;5119951;27;20040;-66
2024/03/01 05:02:42;;;;;;;15.57;9.55;;;8.80;99.90;;;;;;5121602;27;20050;-65
2024/03/01 05:05:09;;;;;;;12.82;9.55;;;8.80;99.90;;;;;;5126206;27;20043;-66
2024/03/01 05:07:35;;;;;;;15.02;10.15;;;8.80;99.90;;;;;;5125703;27;20038;-65
2024/03/01 05:10:08;;;;;;;14.52;10.18;;;8.80;99.90;;;;;;5125076;27;20043;-66
2024/03/01 05:12:36;;;;;;;15.80;9.88;;;8.70;99.90;;;;;;5123458;27;20091;-66
2024/03/01 05:15:04;;;;;;;15.30;9.73;;;8.80;99.90;;;;;;5124555;27;20138;-65
2024/03/01 05:17:35;;;;;;;13.02;9.93;;;8.80;99.90;;;;;;5123795;27;20099;-66
2024/03/01 05:20:01;;;;;;;15.82;10.23;;;8.80;99.90;;;;;;5124623;27;20474;-64
2024/03/01 05:22:27;;;;;;;16.27;10.82;;;8.80;99.90;;;;;;5117649;27;20063;-66
2024/03/01 05:24:53;;;;;;;15.43;10.55;;;8.80;99.90;;;;;;5129079;27;20035;-65
2024/03/01 05:27:18;;;;;;;15.30;10.27;;;8.80;99.90;;;;;;5119394;27;20055;-65
2024/03/01 05:29:44;;;;;;;15.70;10.98;;;8.80;99.90;;;;;;5109751;27;20046;-66
2024/03/01 05:32:10;;;;;;;13.50;10.20;;;8.90;99.90;;;;;;5121160;27;20598;-66
2024/03/01 05:34:36;;;;;;;15.07;10.52;;;8.90;99.90;;;;;;5129163;27;20516;-65
2024/03/01 05:37:02;;;;;;;15.07;10.52;;;8.90;99.90;;;;;;5112508;27;20290;-66
2024/03/01 05:39:28;;;;;;;14.18;10.00;;;9.00;99.90;;;;;;5122092;27;20429;-66
2024/03/01 05:41:54;;;;;;;16.85;11.32;;;9.00;99.90;;;;;;5120504;27;20042;-65
2024/03/01 05:44:20;;;;;;;14.60;10.02;;;9.00;99.90;;;;;;5125683;27;20219;-65
2024/03/01 05:46:47;;;;;;;14.45;9.88;;;9.00;99.90;;;;;;5122842;27;20043;-66
2024/03/01 05:49:13;;;;;;;12.88;9.57;;;9.10;99.90;;;;;;5124475;27;20046;-65
2024/03/01 05:51:39;;;;;;;14.73;10.40;;;9.10;99.90;;;;;;5125130;27;20035;-65
2024/03/01 05:54:05;;;;;;;14.07;10.52;;;9.10;99.90;;;;;;5124405;27;20047;-66
2024/03/01 05:56:31;;;;;;;13.65;10.15;;;9.10;99.90;;;;;;5120551;27;20075;-65
2024/03/01 05:58:57;;;;;;;15.32;10.85;;;9.20;99.90;;;;;;5130145;27;20114;-65
2024/03/01 06:01:23;;;;;;;14.20;10.38;;;9.20;99.90;;;;;;5128472;27;20031;-64
2024/03/01 06:03:49;;;;;;;14.57;10.20;;;9.20;99.90;;;;;;5128160;27;20117;-65
2024/03/01 06:06:18;;;;;;;14.95;10.75;;;9.30;99.90;;;;;;5125843;27;20385;-65
2024/03/01 06:08:45;;;;;;;14.25;10.85;;;9.30;99.90;;;;;;5127172;27;20035;-65
2024/03/01 06:11:11;;;;;;;15.32;10.45;;;9.30;99.90;;;;;;5125454;27;20091;-65
2024/03/01 06:13:38;;;;;;;14.95;10.70;;;9.30;99.90;;;;;;5121206;27;20035;-65
2024/03/01 06:16:04;;;;;;;16.33;12.07;;;9.30;99.90;;;;;;5124771;27;20083;-65
2024/03/01 06:18:30;;;;;;;16.73;11.80;;;9.40;99.90;;;;;;5127613;27;20046;-65
2024/03/01 06:20:56;;;;;;;15.73;11.85;;;9.40;99.90;;;;;;5124791;27;20043;-64
2024/03/01 06:23:22;;;;;;;15.43;12.07;;;9.40;99.90;;;;;;5127258;27;20152;-65
2024/03/01 06:25:48;;;;;;;14.88;11.75;;;9.40;99.90;;;;;;5130619;27;20038;-65
2024/03/01 06:28:14;;;;;;;15.75;11.52;;;9.40;99.90;;;;;;5129749;27;20066;-65
2024/03/01 06:30:40;;;;;;;17.00;12.25;;;9.40;99.90;;;;;;5129638;27;20027;-65
2024/03/01 06:33:07;;;;;;;16.80;11.25;;;9.40;99.90;;;;;;5129917;27;20086;-65
2024/03/01 06:35:33;;;;;;;15.63;11.48;;;9.40;99.90;;;;;;5127643;27;20061;-65
2024/03/01 06:37:59;;;;;;;16.40;12.00;;;9.40;99.90;;;;;;5129965;27;20435;-65
2024/03/01 06:40:25;;;;;;;17.25;12.02;;;9.40;99.90;;;;;;5128602;27;20520;-65
2024/03/01 06:42:51;;;;;;;15.25;11.65;;;9.40;99.90;;;;;;5108506;27;20047;-66
2024/03/01 06:45:16;;;;;;;15.77;11.73;;;9.40;99.90;;;;;;5127307;27;20106;-65
2024/03/01 06:47:42;;;;;;;17.33;11.30;;;9.40;99.90;;;;;;5122412;27;20046;-65
2024/03/01 06:50:09;;;;;;;13.32;10.63;;;9.40;99.90;;;;;;5129626;27;20125;-65
2024/03/01 06:52:35;;;;;;;15.50;11.75;;;9.40;99.90;;;;;;5128860;27;20363;-65
2024/03/01 06:55:01;;;;;;;16.42;11.43;;;9.40;99.90;;;;;;5126670;27;20035;-65
2024/03/01 06:57:27;;;;;;;14.75;11.20;;;9.30;99.90;;;;;;5128338;27;20099;-65
2024/03/01 06:59:53;;;;;;;18.10;11.75;;;9.40;99.90;;;;;;5122550;27;20034;-65
2024/03/01 07:02:18;;;;;;;13.52;10.32;;;9.40;99.90;;;;;;5128486;27;20385;-65
2024/03/01 07:04:45;;;;;;;21.02;12.07;;;9.40;99.90;;;;;;5128466;27;20560;-65
2024/03/01 07:07:10;;;;;;;17.50;11.23;;;9.40;99.90;;;;;;5128024;27;20075;-65
2024/03/01 07:09:36;;;;;;;17.85;11.13;;;9.30;99.90;;;;;;5126545;27;20204;-64
2024/03/01 07:12:02;;;;;;;15.13;11.52;;;9.30;99.90;;;;;;5126319;27;20039;-64
2024/03/01 07:14:28;;;;;;;11.90;8.85;;;9.30;99.90;;;;;;5123660;27;20714;-64
2024/03/01 07:16:53;;;;;;;12.50;9.63;;;9.30;99.90;;;;;;5125386;27;20055;-65
2024/03/01 07:19:19;;;;;;;11.45;8.80;;;9.30;99.90;;;;;;5123984;27;20039;-65
2024/03/01 07:21:45;;;;;;;9.80;7.03;;;9.20;99.90;;;;;;5123071;27;20039;-65
2024/03/01 07:24:11;;;;;;;5.55;4.72;;;9.20;99.90;;;;;;5127301;27;20947;-65
2024/03/01 07:26:36;;;;;;;4.00;2.85;;;9.10;99.90;;;;;;5128181;27;20062;-63
2024/03/01 07:29:02;;;;;;;4.30;2.63;;;8.90;99.90;;;;;;5125321;27;20634;-61
2024/03/01 07:31:28;;;;;;;2.22;2.00;;;8.80;99.90;;;;;;5127568;27;20035;-62
2024/03/01 07:33:55;;;;;;;3.55;1.50;;;8.70;99.90;;;;;;5129400;27;20119;-65
2024/03/01 07:36:21;;;;;;;1.92;1.40;;;8.50;99.90;;;;;;5116294;27;20504;-62
2024/03/01 07:38:47;;;;;;;4.10;1.60;;;8.40;99.90;;;;;;5125727;27;20035;-62
2024/03/01 07:41:16;;;;;;;5.78;1.77;;;8.30;99.90;;;;;;5124820;27;20557;-62
2024/03/01 07:43:41;;;;;;;3.15;1.38;;;8.20;99.90;;;;;;5128389;27;20046;-65
2024/03/01 07:46:07;;;;;;;3.17;1.48;;;8.10;99.90;;;;;;5126443;27;20044;-62
2024/03/01 07:48:33;;;;;;;3.83;1.50;;;8.00;99.90;;;;;;5126078;27;20039;-61
2024/03/01 07:50:59;;;;;;;2.58;1.42;;;8.00;99.90;;;;;;5127298;27;20057;-63
2024/03/01 07:53:25;;;;;;;4.78;2.00;;;8.00;99.90;;;;;;5127474;27;20410;-62
2024/03/01 07:55:50;;;;;;;4.20;1.30;;;7.90;99.90;;;;;;5126883;27;20088;-62
2024/03/01 07:58:20;;;;;;;4.60;1.58;;;7.90;99.90;;;;;;5125225;27;20039;-63
2024/03/01 08:00:46;;;;;;;4.00;1.70;;;7.90;99.90;;;;;;5125601;27;20043;-63
2024/03/01 08:03:12;;;;;;;2.45;0.80;;;7.80;99.90;;;;;;5128959;27;20098;-62
2024/03/01 08:05:39;;;;;;;4.75;1.00;;;7.80;99.90;;;;;;5126957;27;20031;-64
2024/03/01 08:08:07;;;;;;;3.75;0.93;;;7.80;99.90;;;;;;5123272;27;20035;-62
2024/03/01 08:10:34;;;;;;;4.10;1.05;;;7.80;99.90;;;;;;5123505;27;20042;-63
2024/03/01 08:13:01;;;;;;;5.15;1.65;;;7.80;99.90;;;;;;5130463;27;20124;-63
2024/03/01 08:15:30;;;;;;;5.03;1.70;;;7.80;99.90;;;;;;5125045;27;20074;-63
2024/03/01 08:17:56;;;;;;;4.95;1.70;;;7.90;99.90;;;;;;5127788;27;20079;-63
2024/03/01 08:21:06;;;;;;;4.97;1.83;;;7.90;99.90;;;;;;5122988;27;20043;-62
2024/03/01 08:23:40;;;;;;;6.00;1.90;;;7.90;99.90;;;;;;5122085;27;20043;-62
2024/03/01 08:26:13;;;;;;;2.03;1.73;;;7.90;99.90;;;;;;5124915;27;20496;-62
2024/03/01 08:28:44;;;;;;;2.28;1.20;;;7.90;99.90;;;;;;5121595;27;20034;-62
2024/03/01 08:31:27;;;;;;;2.92;1.23;;;7.90;99.90;;;;;;5121936;27;20139;-62
2024/03/01 08:34:17;;;;;;;6.97;1.30;;;7.80;99.90;;;;;;5126850;27;20169;-62
2024/03/01 08:36:44;;;;;;;5.60;1.08;;;7.80;99.90;;;;;;5125137;27;20035;-62
2024/03/01 08:39:10;;;;;;;3.67;1.00;;;7.70;99.90;;;;;;5110470;27;20039;-62
2024/03/01 08:41:38;;;;;;;3.80;1.42;;;7.70;99.90;;;;;;5127844;27;20050;-61
2024/03/01 08:44:32;;;;;;;5.40;1.48;;;7.70;99.90;;;;;;5124001;27;20039;-62
2024/03/01 08:46:58;;;;;;;5.95;1.60;;;7.70;99.90;;;;;;5125155;27;20616;-62
2024/03/01 08:49:51;;;;;;;4.35;1.33;;;7.80;99.90;;;;;;5124677;27;20137;-62
2024/03/01 08:52:37;;;;;;;5.15;1.30;;;7.90;99.90;;;;;;5126823;27;20043;-62
2024/03/01 08:55:09;;;;;;;5.40;1.80;;;8.10;99.90;;;;;;5126254;27;20043;-63
2024/03/01 08:57:37;;;;;;;7.75;1.27;;;8.30;99.90;;;;;;5124920;27;20511;-63
2024/03/01 09:00:26;;;;;;;8.50;1.50;;;8.40;99.90;;;;;;5125691;27;20040;-62
2024/03/01 09:02:53;;;;;;;3.58;1.58;;;8.60;99.90;;;;;;5122448;27;20035;-62
2024/03/01 09:05:22;;;;;;;4.25;1.20;;;8.80;99.90;;;;;;5118753;27;20371;-63
2024/03/01 09:07:49;;;;;;;8.57;2.20;;;8.90;99.90;;;;;;5121352;27;20357;-62
2024/03/01 09:10:35;;;;;;;3.88;1.17;;;9.10;99.90;;;;;;5125598;27;20045;-63
2024/03/01 09:13:03;;;;;;;2.67;1.20;;;9.10;99.90;;;;;;5125099;27;20046;-63
2024/03/01 09:15:39;;;;;;;3.27;1.43;;;9.20;99.90;;;;;;5115564;27;20062;-62
2024/03/01 09:18:16;;;;;;;4.13;1.10;;;9.30;99.90;;;;;;5126568;27;20039;-62
2024/03/01 09:20:44;;;;;;;6.30;1.40;;;9.20;99.90;;;;;;5118571;27;20070;-63
2024/03/01 09:23:13;;;;;;;2.33;1.00;;;9.20;99.90;;;;;;5119494;27;20047;-62
2024/03/01 09:25:48;;;;;;;3.35;1.95;;;9.20;99.90;;;;;;5122341;27;20023;-62
2024/03/01 09:28:20;;;;;;;3.83;1.08;;;9.20;99.90;;;;;;5124486;27;20035;-63
2024/03/01 09:30:50;;;;;;;3.83;1.00;;;9.20;99.90;;;;;;5120945;27;20628;-62
2024/03/01 09:33:17;;;;;;;1.75;0.80;;;9.20;99.90;;;;;;5128998;27;20553;-62
2024/03/01 09:35:43;;;;;;;1.35;0.93;;;9.20;99.90;;;;;;5128343;27;20112;-63
2024/03/01 09:38:14;;;;;;;1.90;0.80;;;9.10;99.90;;;;;;5128546;27;20035;-62
2024/03/01 09:40:57;;;;;;;1.55;0.70;;;9.10;99.90;;;;;;5128236;27;20577;-62
2024/03/01 09:43:56;;;;;;;4.57;1.42;;;9.10;99.90;;;;;;5129129;27;20046;-62
2024/03/01 09:46:38;;;;;;;3.58;0.85;;;9.10;99.90;;;;;;5126029;27;20039;-63
2024/03/01 09:49:19;;;;;;;3.47;1.00;;;9.20;99.90;;;;;;5122576;27;20138;-63
2024/03/01 09:52:09;;;;;;;3.92;1.13;;;9.10;99.90;;;;;;5127691;27;20095;-62
2024/03/01 09:54:49;;;;;;;4.43;1.33;;;9.10;99.90;;;;;;5128147;27;20046;-61
2024/03/01 09:57:24;;;;;;;6.75;2.33;;;9.10;99.90;;;;;;5127194;27;20046;-61
2024/03/01 10:00:14;;;;;;;5.18;1.88;;;9.10;99.90;;;;;;5126400;27;20455;-61
2024/03/01 10:02:54;;;;;;;;;;;9.20;99.90;;;;;;5127703;27;20525;-61
2024/03/01 10:05:57;;;;;;;5.50;1.80;;;9.10;99.90;;;;;;5124734;27;20575;-61
2024/03/01 10:08:49;;;;;;;2.70;1.70;;;9.20;99.90;;;;;;5127881;27;20040;-61
2024/03/01 10:11:17;;;;;;;3.28;1.60;;;9.30;99.90;;;;;;5130612;27;20150;-62
2024/03/01 10:13:43;;;;;;;2.80;1.48;;;9.40;99.90;;;;;;5128227;27;20078;-62
2024/03/01 10:16:20;;;;;;;3.08;1.63;;;9.30;99.90;;;;;;5128456;27;20107;-62
2024/03/01 10:19:06;;;;;;;4.78;1.95;;;9.40;99.90;;;;;;5127373;27;20050;-61
2024/03/01 10:21:44;;;;;;;2.70;1.40;;;9.30;99.90;;;;;;5127982;27;20413;-61
2024/03/01 10:24:19;;;;;;;3.83;1.52;;;9.40;99.90;;;;;;5125816;27;21366;-61
2024/03/01 10:27:20;;;;;;;5.72;1.35;;;9.40;99.90;;;;;;5127862;27;20066;-62
2024/03/01 10:30:07;;;;;;;1.10;1.00;;;9.40;99.90;;;;;;5124506;27;20051;-61
2024/03/01 10:32:52;;;;;;;3.17;1.10;;;9.40;99.90;;;;;;5124860;27;20481;-61
2024/03/01 10:35:25;;;;;;;3.45;1.13;;;9.30;99.90;;;;;;5126174;27;20042;-62
2024/03/01 10:38:20;;;;;;;1.75;1.13;;;9.30;99.90;;;;;;5128579;27;20157;-61
2024/03/01 10:41:14;;;;;;;3.20;1.20;;;9.30;99.90;;;;;;5126522;27;20119;-61
2024/03/01 10:44:04;;;;;;;7.57;1.50;;;9.20;99.90;;;;;;5127275;27;20516;-61
2024/03/01 10:46:44;;;;;;;6.60;1.30;;;9.20;99.90;;;;;;5126549;27;20516;-61
2024/03/01 10:49:46;;;;;;;4.28;1.30;;;9.20;99.90;;;;;;5125891;27;20402;-62
2024/03/01 10:52:17;;;;;;;3.50;1.30;;;9.40;99.90;;;;;;5123768;27;20070;-62
2024/03/01 10:54:50;;;;;;;2.03;1.50;;;9.50;99.90;;;;;;5127650;27;20545;-62
2024/03/01 10:57:18;;;;;;;3.15;1.45;;;9.60;99.90;;;;;;5127795;27;20064;-61
2024/03/01 11:00:02;;;;;;;2.67;1.40;;;9.70;99.90;;;;;;5128218;27;20078;-62
2024/03/01 11:02:33;;;;;;;4.20;1.40;;;9.90;99.90;;;;;;5128095;27;20279;-62
2024/03/01 11:05:06;;;;;;;3.50;1.70;;;10.00;99.90;;;;;;5128263;27;20359;-63
2024/03/01 11:07:44;;;;;;;3.95;1.55;;;10.00;99.90;;;;;;5125598;27;20517;-62
2024/03/01 11:10:27;;;;;;;3.80;1.48;;;10.10;99.90;;;;;;5128635;27;20662;-62
2024/03/01 11:13:01;;;;;;;5.47;1.70;;;10.00;99.90;;;;;;5126471;27;20555;-62
2024/03/01 11:15:29;;;;;;;3.63;1.85;;;10.20;99.90;;;;;;5127345;27;20046;-62
2024/03/01 11:17:57;;;;;;;4.00;1.90;;;10.60;99.90;;;;;;5128797;27;20399;-62
2024/03/01 11:20:29;;;;;;;3.33;2.05;;;10.80;99.90;;;;;;5126971;27;20592;-62
2024/03/01 11:23:14;;;;;;;4.57;1.90;;;11.00;99.90;;;;;;5126239;27;20521;-62
2024/03/01 11:26:03;;;;;;;4.50;1.95;;;11.10;99.90;;;;;;5125683;27;20788;-62
2024/03/01 11:28:30;;;;;;;5.53;1.92;;;10.90;99.90;;;;;;5127624;27;20471;-62
2024/03/01 11:31:01;;;;;;;3.10;1.50;;;10.80;99.90;;;;;;5128710;27;20105;-61
2024/03/01 11:33:33;;;;;;;4.88;2.10;;;10.80;99.90;;;;;;5124821;27;20050;-62
2024/03/01 11:36:18;;;;;;;5.53;1.80;;;10.80;99.90;;;;;;5127495;27;20439;-61
2024/03/01 11:39:06;;;;;;;7.95;2.92;;;10.80;99.90;;;;;;5128813;27;20118;-62
2024/03/01 11:41:50;;;;;;;3.72;1.63;;;10.80;99.90;;;;;;5124703;27;20093;-62
2024/03/01 11:44:34;;;;;;;2.78;2.00;;;10.70;99.90;;;;;;5127056;27;20062;-60
2024/03/01 11:47:06;;;;;;;4.78;2.00;;;10.70;99.90;;;;;;5126536;27;20038;-61
2024/03/01 11:49:53;;;;;;;4.03;2.00;;;10.80;99.90;;;;;;5127599;27;20662;-62
2024/03/01 11:52:28;;;;;;;4.65;2.20;;;11.20;99.90;;;;;;5125569;27;20040;-62
2024/03/01 11:55:06;;;;;;;4.47;1.70;;;11.60;99.90;;;;;;5125156;27;20834;-63
2024/03/01 11:57:43;;;;;;;5.28;2.28;;;11.80;99.90;;;;;;5125407;27;20624;-63
2024/03/01 12:00:43;;;;;;;5.40;2.00;;;12.00;99.90;;;;;;5129894;27;20053;-63
2024/03/01 12:03:42;;;;;;;5.40;2.28;;;12.10;99.90;;;;;;5128461;27;20046;-62
2024/03/01 12:06:25;;;;;;;7.78;2.05;;;12.40;99.90;;;;;;5094790;27;20047;-62
2024/03/01 12:09:14;;;;;;;4.90;2.03;;;12.50;99.90;;;;;;5129793;27;20437;-63
2024/03/01 12:12:03;;;;;;;4.38;2.05;;;12.60;99.90;;;;;;5126601;27;20067;-63
2024/03/01 12:14:40;;;;;;;8.52;2.40;;;12.50;99.90;;;;;;5122701;27;20306;-63
2024/03/01 12:17:18;;;;;;;6.55;2.20;;;12.80;99.90;;;;;;5120885;27;20371;-61
2024/03/01 12:19:56;;;;;;;5.43;2.10;;;12.60;99.90;;;;;;5124806;27;20494;-62
2024/03/01 12:22:54;;;;;;;5.55;2.30;;;12.90;99.90;;;;;;5127471;27;20031;-62
2024/03/01 12:25:22;;;;;;;3.75;2.00;;;12.90;99.90;;;;;;5109717;27;20076;-61
2024/03/01 12:28:08;;;;;;;3.55;1.80;;;12.90;99.90;;;;;;5127873;27;20507;-62
2024/03/01 12:30:37;;;;;;;3.35;2.05;;;12.80;99.90;;;;;;5125860;27;20157;-62
2024/03/01 12:33:40;;;;;;;7.00;2.33;;;12.80;99.90;;;;;;5126457;27;20679;-61
2024/03/01 12:36:47;;;;;;;6.93;1.90;;;12.60;99.90;;;;;;5117736;27;20043;-63
2024/03/01 12:39:18;;;;;;;4.82;1.65;;;12.80;99.90;;;;;;5125687;27;20050;-62
2024/03/01 12:42:11;;;;;;;4.90;1.90;;;13.20;99.90;;;;;;5128816;27;20030;-62
2024/03/01 12:45:02;;;;;;;5.63;2.22;;;13.00;99.90;;;;;;5124396;27;20548;-62
2024/03/01 12:47:56;;;;;;;4.55;2.28;;;13.10;99.90;;;;;;5125297;27;20416;-62
2024/03/01 12:50:48;;;;;;;6.75;2.13;;;13.10;99.90;;;;;;5127783;27;20034;-62
2024/03/01 12:53:36;;;;;;;3.80;2.00;;;12.90;99.90;;;;;;5120531;27;20114;-62
2024/03/01 12:56:20;;;;;;;5.72;1.60;;;13.20;99.90;;;;;;5119565;27;20043;-62
2024/03/01 12:59:10;;;;;;;4.68;1.60;;;13.30;99.90;;;;;;5127308;27;20039;-62
2024/03/01 13:01:48;;;;;;;7.75;1.90;;;13.30;99.90;;;;;;5126549;27;20042;-62
2024/03/01 13:04:44;;;;;;;4.03;1.42;;;13.70;99.90;;;;;;5125909;27;20038;-62
2024/03/01 13:07:14;;;;;;;3.95;1.55;;;13.90;99.90;;;;;;5126844;27;20038;-62
2024/03/01 13:09:45;;;;;;;5.35;2.42;;;13.80;99.90;;;;;;5125663;27;20039;-62
2024/03/01 13:12:21;;;;;;;4.15;2.00;;;13.70;99.90;;;;;;5131065;27;20040;-62